sensor_id;sensor_type;location;lat;lon;timestamp;temperature;humidity
76789;DHT22;65740;52.464;13.446;2023-05-10T00:01:57;19.70;43.60
76789;DHT22;65740;52.464;13.446;2023-05-10T00:04:23;19.70;43.60
76789;DHT22;65740;52.464;13.446;2023-05-10T00:06:53;19.70;43.60
76789;DHT22;65740;52.464;13.446;2023-05-10T00:09:18;19.70;43.60
76789;DHT22;65740;52.464;13.446;2023-05-10T00:11:44;19.70;43.60
76789;DHT22;65740;52.464;13.446;2023-05-10T00:14:10;19.70;43.60
76789;DHT22;65740;52.464;13.446;2023-05-10T00:16:35;19.70;43.60
76789;DHT22;65740;52.464;13.446;2023-05-10T00:19:01;19.60;43.50
76789;DHT22;65740;52.464;13.446;2023-05-10T00:21:26;19.60;43.40
76789;DHT22;65740;52.464;13.446;2023-05-10T00:23:53;19.60;43.50
76789;DHT22;65740;52.464;13.446;2023-05-10T00:26:19;19.60;43.40
76789;DHT22;65740;52.464;13.446;2023-05-10T00:28:45;19.60;43.50
76789;DHT22;65740;52.464;13.446;2023-05-10T00:31:10;19.60;43.50
76789;DHT22;65740;52.464;13.446;2023-05-10T00:33:36;19.50;43.30
76789;DHT22;65740;52.464;13.446;2023-05-10T00:36:02;19.60;43.50
76789;DHT22;65740;52.464;13.446;2023-05-10T00:38:28;19.50;43.30
76789;DHT22;65740;52.464;13.446;2023-05-10T00:40:53;19.50;43.30
76789;DHT22;65740;52.464;13.446;2023-05-10T00:43:19;19.50;43.30
76789;DHT22;65740;52.464;13.446;2023-05-10T00:45:45;19.50;43.30
76789;DHT22;65740;52.464;13.446;2023-05-10T00:48:11;19.50;43.20
76789;DHT22;65740;52.464;13.446;2023-05-10T00:50:37;19.50;43.30
76789;DHT22;65740;52.464;13.446;2023-05-10T00:53:03;19.40;43.20
76789;DHT22;65740;52.464;13.446;2023-05-10T00:55:28;19.40;43.20
76789;DHT22;65740;52.464;13.446;2023-05-10T00:57:54;19.40;43.20
76789;DHT22;65740;52.464;13.446;2023-05-10T01:00:21;19.40;43.10
76789;DHT22;65740;52.464;13.446;2023-05-10T01:02:47;19.40;43.10
76789;DHT22;65740;52.464;13.446;2023-05-10T01:05:13;19.40;43.10
76789;DHT22;65740;52.464;13.446;2023-05-10T01:07:39;19.40;43.10
76789;DHT22;65740;52.464;13.446;2023-05-10T01:10:06;19.40;43.20
76789;DHT22;65740;52.464;13.446;2023-05-10T01:12:33;19.40;43.20
76789;DHT22;65740;52.464;13.446;2023-05-10T01:15:00;19.30;43.00
76789;DHT22;65740;52.464;13.446;2023-05-10T01:17:27;19.30;43.10
76789;DHT22;65740;52.464;13.446;2023-05-10T01:19:53;19.30;43.10
76789;DHT22;65740;52.464;13.446;2023-05-10T01:31:08;19.30;43.00
76789;DHT22;65740;52.464;13.446;2023-05-10T01:34:01;19.30;42.90
76789;DHT22;65740;52.464;13.446;2023-05-10T01:36:38;19.30;43.00
76789;DHT22;65740;52.464;13.446;2023-05-10T01:39:32;19.30;42.90
76789;DHT22;65740;52.464;13.446;2023-05-10T01:44:29;19.20;42.70
76789;DHT22;65740;52.464;13.446;2023-05-10T01:47:18;19.20;42.70
76789;DHT22;65740;52.464;13.446;2023-05-10T01:49:52;19.20;42.70
76789;DHT22;65740;52.464;13.446;2023-05-10T01:52:21;19.20;42.60
76789;DHT22;65740;52.464;13.446;2023-05-10T01:54:58;19.20;42.60
76789;DHT22;65740;52.464;13.446;2023-05-10T01:57:26;19.20;42.60
76789;DHT22;65740;52.464;13.446;2023-05-10T01:59:54;19.20;42.60
76789;DHT22;65740;52.464;13.446;2023-05-10T02:02:21;19.20;42.60
76789;DHT22;65740;52.464;13.446;2023-05-10T02:04:47;19.20;42.70
76789;DHT22;65740;52.464;13.446;2023-05-10T02:07:15;19.10;42.50
76789;DHT22;65740;52.464;13.446;2023-05-10T02:09:44;19.10;42.50
76789;DHT22;65740;52.464;13.446;2023-05-10T02:12:13;19.10;42.50
76789;DHT22;65740;52.464;13.446;2023-05-10T02:14:41;19.10;42.50
76789;DHT22;65740;52.464;13.446;2023-05-10T02:17:08;19.10;42.50
76789;DHT22;65740;52.464;13.446;2023-05-10T02:19:36;19.10;42.50
76789;DHT22;65740;52.464;13.446;2023-05-10T02:22:03;19.10;42.50
76789;DHT22;65740;52.464;13.446;2023-05-10T02:24:29;19.10;43.00
76789;DHT22;65740;52.464;13.446;2023-05-10T02:26:56;19.10;43.00
76789;DHT22;65740;52.464;13.446;2023-05-10T02:29:24;19.10;42.40
76789;DHT22;65740;52.464;13.446;2023-05-10T02:31:52;19.00;42.20
76789;DHT22;65740;52.464;13.446;2023-05-10T02:34:20;19.10;42.40
76789;DHT22;65740;52.464;13.446;2023-05-10T02:36:47;19.00;42.20
76789;DHT22;65740;52.464;13.446;2023-05-10T02:39:14;19.00;42.20
76789;DHT22;65740;52.464;13.446;2023-05-10T02:41:42;19.00;42.20
76789;DHT22;65740;52.464;13.446;2023-05-10T02:44:09;19.00;42.20
76789;DHT22;65740;52.464;13.446;2023-05-10T02:46:36;19.00;42.20
76789;DHT22;65740;52.464;13.446;2023-05-10T02:49:03;19.00;42.20
76789;DHT22;65740;52.464;13.446;2023-05-10T02:51:32;19.00;42.20
76789;DHT22;65740;52.464;13.446;2023-05-10T02:54:03;19.00;42.10
76789;DHT22;65740;52.464;13.446;2023-05-10T02:56:35;18.90;42.10
76789;DHT22;65740;52.464;13.446;2023-05-10T02:59:01;18.90;42.00
76789;DHT22;65740;52.464;13.446;2023-05-10T03:01:27;19.00;42.10
76789;DHT22;65740;52.464;13.446;2023-05-10T03:03:52;18.90;42.10
76789;DHT22;65740;52.464;13.446;2023-05-10T03:06:19;18.90;42.00
76789;DHT22;65740;52.464;13.446;2023-05-10T03:08:44;18.90;42.00
76789;DHT22;65740;52.464;13.446;2023-05-10T03:14:03;18.90;42.00
76789;DHT22;65740;52.464;13.446;2023-05-10T03:16:42;18.90;42.00
76789;DHT22;65740;52.464;13.446;2023-05-10T03:19:22;18.90;41.90
76789;DHT22;65740;52.464;13.446;2023-05-10T03:21:52;18.90;41.90
76789;DHT22;65740;52.464;13.446;2023-05-10T03:24:20;18.90;41.90
76789;DHT22;65740;52.464;13.446;2023-05-10T03:26:47;18.80;41.70
76789;DHT22;65740;52.464;13.446;2023-05-10T03:29:14;18.80;41.70
76789;DHT22;65740;52.464;13.446;2023-05-10T03:31:41;18.80;41.70
76789;DHT22;65740;52.464;13.446;2023-05-10T03:34:07;18.80;41.70
76789;DHT22;65740;52.464;13.446;2023-05-10T03:36:32;18.80;41.60
76789;DHT22;65740;52.464;13.446;2023-05-10T03:38:58;18.80;41.60
76789;DHT22;65740;52.464;13.446;2023-05-10T03:41:24;18.80;41.60
76789;DHT22;65740;52.464;13.446;2023-05-10T03:43:51;18.80;41.60
76789;DHT22;65740;52.464;13.446;2023-05-10T03:46:16;18.80;41.60
76789;DHT22;65740;52.464;13.446;2023-05-10T03:48:42;18.80;41.60
76789;DHT22;65740;52.464;13.446;2023-05-10T03:51:07;18.80;41.60
76789;DHT22;65740;52.464;13.446;2023-05-10T03:53:33;18.80;41.50
76789;DHT22;65740;52.464;13.446;2023-05-10T03:55:59;18.70;41.50
76789;DHT22;65740;52.464;13.446;2023-05-10T03:58:25;18.80;41.60
76789;DHT22;65740;52.464;13.446;2023-05-10T04:00:51;18.70;41.40
76789;DHT22;65740;52.464;13.446;2023-05-10T04:03:17;18.70;41.40
76789;DHT22;65740;52.464;13.446;2023-05-10T04:05:43;18.70;41.40
76789;DHT22;65740;52.464;13.446;2023-05-10T04:08:08;18.70;41.40
76789;DHT22;65740;52.464;13.446;2023-05-10T04:10:34;18.70;41.40
76789;DHT22;65740;52.464;13.446;2023-05-10T04:13:00;18.70;41.40
76789;DHT22;65740;52.464;13.446;2023-05-10T04:15:25;18.70;41.40
76789;DHT22;65740;52.464;13.446;2023-05-10T04:17:51;18.70;41.40
76789;DHT22;65740;52.464;13.446;2023-05-10T04:20:17;18.70;41.30
76789;DHT22;65740;52.464;13.446;2023-05-10T04:22:43;18.70;41.30
76789;DHT22;65740;52.464;13.446;2023-05-10T04:25:09;18.70;41.30
76789;DHT22;65740;52.464;13.446;2023-05-10T04:27:34;18.60;41.10
76789;DHT22;65740;52.464;13.446;2023-05-10T04:30:00;18.60;41.10
76789;DHT22;65740;52.464;13.446;2023-05-10T04:32:26;18.60;41.10
76789;DHT22;65740;52.464;13.446;2023-05-10T04:34:51;18.60;41.10
76789;DHT22;65740;52.464;13.446;2023-05-10T04:37:17;18.60;41.10
76789;DHT22;65740;52.464;13.446;2023-05-10T04:39:43;18.60;41.10
76789;DHT22;65740;52.464;13.446;2023-05-10T04:42:08;18.60;41.10
76789;DHT22;65740;52.464;13.446;2023-05-10T04:44:34;18.60;41.10
76789;DHT22;65740;52.464;13.446;2023-05-10T04:47:00;18.60;41.00
76789;DHT22;65740;52.464;13.446;2023-05-10T04:49:27;18.60;41.80
76789;DHT22;65740;52.464;13.446;2023-05-10T04:51:53;18.60;41.00
76789;DHT22;65740;52.464;13.446;2023-05-10T04:54:19;18.60;40.90
76789;DHT22;65740;52.464;13.446;2023-05-10T04:56:44;18.60;41.00
76789;DHT22;65740;52.464;13.446;2023-05-10T04:59:10;18.60;40.90
76789;DHT22;65740;52.464;13.446;2023-05-10T05:01:35;18.60;41.00
76789;DHT22;65740;52.464;13.446;2023-05-10T05:04:01;18.60;40.90
76789;DHT22;65740;52.464;13.446;2023-05-10T05:06:27;18.60;41.60
76789;DHT22;65740;52.464;13.446;2023-05-10T05:08:52;18.60;40.90
76789;DHT22;65740;52.464;13.446;2023-05-10T05:11:18;18.60;40.90
76789;DHT22;65740;52.464;13.446;2023-05-10T05:13:44;18.60;40.90
76789;DHT22;65740;52.464;13.446;2023-05-10T05:16:09;18.60;40.90
76789;DHT22;65740;52.464;13.446;2023-05-10T05:18:36;18.50;40.80
76789;DHT22;65740;52.464;13.446;2023-05-10T05:21:02;18.50;40.80
76789;DHT22;65740;52.464;13.446;2023-05-10T05:23:28;18.60;41.00
76789;DHT22;65740;52.464;13.446;2023-05-10T05:25:53;18.50;40.80
76789;DHT22;65740;52.464;13.446;2023-05-10T05:28:20;18.50;40.80
76789;DHT22;65740;52.464;13.446;2023-05-10T05:30:46;18.50;40.90
76789;DHT22;65740;52.464;13.446;2023-05-10T05:33:13;18.50;40.90
76789;DHT22;65740;52.464;13.446;2023-05-10T05:35:39;18.50;40.80
76789;DHT22;65740;52.464;13.446;2023-05-10T05:38:05;18.50;40.80
76789;DHT22;65740;52.464;13.446;2023-05-10T05:40:31;18.50;40.80
76789;DHT22;65740;52.464;13.446;2023-05-10T05:42:57;18.50;40.80
76789;DHT22;65740;52.464;13.446;2023-05-10T05:45:22;18.50;40.80
76789;DHT22;65740;52.464;13.446;2023-05-10T05:47:48;18.50;40.80
76789;DHT22;65740;52.464;13.446;2023-05-10T05:50:13;18.50;40.80
76789;DHT22;65740;52.464;13.446;2023-05-10T05:52:39;18.50;40.80
76789;DHT22;65740;52.464;13.446;2023-05-10T05:55:05;18.50;40.80
76789;DHT22;65740;52.464;13.446;2023-05-10T05:57:31;18.50;41.50
76789;DHT22;65740;52.464;13.446;2023-05-10T05:59:56;18.50;41.50
76789;DHT22;65740;52.464;13.446;2023-05-10T06:02:22;18.50;40.80
76789;DHT22;65740;52.464;13.446;2023-05-10T06:04:47;18.50;40.80
76789;DHT22;65740;52.464;13.446;2023-05-10T06:07:13;18.50;40.70
76789;DHT22;65740;52.464;13.446;2023-05-10T06:09:38;18.50;40.70
76789;DHT22;65740;52.464;13.446;2023-05-10T06:12:04;18.50;40.80
76789;DHT22;65740;52.464;13.446;2023-05-10T06:14:30;18.50;40.80
76789;DHT22;65740;52.464;13.446;2023-05-10T06:16:56;18.50;40.60
76789;DHT22;65740;52.464;13.446;2023-05-10T06:19:21;18.50;40.70
76789;DHT22;65740;52.464;13.446;2023-05-10T06:21:47;18.50;40.70
76789;DHT22;65740;52.464;13.446;2023-05-10T06:24:13;18.50;40.80
76789;DHT22;65740;52.464;13.446;2023-05-10T06:26:38;18.50;40.80
76789;DHT22;65740;52.464;13.446;2023-05-10T06:29:04;18.50;40.80
76789;DHT22;65740;52.464;13.446;2023-05-10T06:31:29;18.50;40.70
76789;DHT22;65740;52.464;13.446;2023-05-10T06:33:55;18.50;40.70
76789;DHT22;65740;52.464;13.446;2023-05-10T06:36:21;18.50;40.60
76789;DHT22;65740;52.464;13.446;2023-05-10T06:38:47;18.60;40.70
76789;DHT22;65740;52.464;13.446;2023-05-10T06:41:13;18.60;40.80
76789;DHT22;65740;52.464;13.446;2023-05-10T06:43:38;18.50;40.60
76789;DHT22;65740;52.464;13.446;2023-05-10T06:46:06;18.60;40.80
76789;DHT22;65740;52.464;13.446;2023-05-10T06:48:32;18.60;40.80
76789;DHT22;65740;52.464;13.446;2023-05-10T06:50:58;18.60;40.80
76789;DHT22;65740;52.464;13.446;2023-05-10T06:53:23;18.50;40.80
76789;DHT22;65740;52.464;13.446;2023-05-10T06:55:49;18.60;40.90
76789;DHT22;65740;52.464;13.446;2023-05-10T06:58:15;18.60;40.90
76789;DHT22;65740;52.464;13.446;2023-05-10T07:00:41;18.60;40.90
76789;DHT22;65740;52.464;13.446;2023-05-10T07:03:12;18.60;40.90
76789;DHT22;65740;52.464;13.446;2023-05-10T07:05:37;18.60;40.90
76789;DHT22;65740;52.464;13.446;2023-05-10T07:08:03;18.60;40.90
76789;DHT22;65740;52.464;13.446;2023-05-10T07:10:29;18.60;40.90
76789;DHT22;65740;52.464;13.446;2023-05-10T07:12:55;18.60;41.00
76789;DHT22;65740;52.464;13.446;2023-05-10T07:15:21;18.60;41.00
76789;DHT22;65740;52.464;13.446;2023-05-10T07:17:46;18.60;40.90
76789;DHT22;65740;52.464;13.446;2023-05-10T07:20:12;18.60;41.10
76789;DHT22;65740;52.464;13.446;2023-05-10T07:22:38;18.60;41.40
76789;DHT22;65740;52.464;13.446;2023-05-10T07:25:04;18.60;40.90
76789;DHT22;65740;52.464;13.446;2023-05-10T07:27:30;18.50;40.50
76789;DHT22;65740;52.464;13.446;2023-05-10T07:29:55;18.60;40.90
76789;DHT22;65740;52.464;13.446;2023-05-10T07:32:21;18.50;40.30
76789;DHT22;65740;52.464;13.446;2023-05-10T07:34:47;18.60;40.80
76789;DHT22;65740;52.464;13.446;2023-05-10T07:37:13;18.60;40.50
76789;DHT22;65740;52.464;13.446;2023-05-10T07:39:38;18.60;40.30
76789;DHT22;65740;52.464;13.446;2023-05-10T07:42:04;18.60;40.20
76789;DHT22;65740;52.464;13.446;2023-05-10T07:44:29;18.60;40.20
76789;DHT22;65740;52.464;13.446;2023-05-10T07:46:55;18.60;40.10
76789;DHT22;65740;52.464;13.446;2023-05-10T07:49:22;18.60;39.90
76789;DHT22;65740;52.464;13.446;2023-05-10T07:51:49;18.70;40.70
76789;DHT22;65740;52.464;13.446;2023-05-10T07:54:15;18.70;40.20
76789;DHT22;65740;52.464;13.446;2023-05-10T07:56:41;18.70;40.20
76789;DHT22;65740;52.464;13.446;2023-05-10T07:59:15;18.80;39.90
76789;DHT22;65740;52.464;13.446;2023-05-10T08:01:41;18.80;40.10
76789;DHT22;65740;52.464;13.446;2023-05-10T08:04:07;18.80;40.10
76789;DHT22;65740;52.464;13.446;2023-05-10T08:06:33;18.80;40.10
76789;DHT22;65740;52.464;13.446;2023-05-10T08:08:59;18.80;40.00
76789;DHT22;65740;52.464;13.446;2023-05-10T08:11:25;18.80;39.80
76789;DHT22;65740;52.464;13.446;2023-05-10T08:13:53;18.80;40.10
76789;DHT22;65740;52.464;13.446;2023-05-10T08:16:19;18.80;40.00
76789;DHT22;65740;52.464;13.446;2023-05-10T08:18:45;18.90;40.10
76789;DHT22;65740;52.464;13.446;2023-05-10T08:21:12;18.90;40.20
76789;DHT22;65740;52.464;13.446;2023-05-10T08:23:38;19.00;40.40
76789;DHT22;65740;52.464;13.446;2023-05-10T08:26:04;19.00;40.40
76789;DHT22;65740;52.464;13.446;2023-05-10T08:28:30;19.00;40.70
76789;DHT22;65740;52.464;13.446;2023-05-10T08:30:56;19.10;40.70
76789;DHT22;65740;52.464;13.446;2023-05-10T08:33:21;19.20;40.90
76789;DHT22;65740;52.464;13.446;2023-05-10T08:35:47;19.10;40.80
76789;DHT22;65740;52.464;13.446;2023-05-10T08:38:13;19.20;41.00
76789;DHT22;65740;52.464;13.446;2023-05-10T08:40:41;19.20;41.00
76789;DHT22;65740;52.464;13.446;2023-05-10T08:43:09;19.30;41.10
76789;DHT22;65740;52.464;13.446;2023-05-10T08:45:43;19.30;41.10
76789;DHT22;65740;52.464;13.446;2023-05-10T08:48:11;19.40;41.30
76789;DHT22;65740;52.464;13.446;2023-05-10T08:50:38;19.30;41.20
76789;DHT22;65740;52.464;13.446;2023-05-10T08:53:09;19.40;41.90
76789;DHT22;65740;52.464;13.446;2023-05-10T08:55:36;19.40;41.30
76789;DHT22;65740;52.464;13.446;2023-05-10T08:58:04;19.40;41.30
76789;DHT22;65740;52.464;13.446;2023-05-10T09:00:29;19.50;41.50
76789;DHT22;65740;52.464;13.446;2023-05-10T09:03:00;19.50;41.70
76789;DHT22;65740;52.464;13.446;2023-05-10T09:05:26;19.50;41.70
76789;DHT22;65740;52.464;13.446;2023-05-10T09:07:52;19.50;41.60
76789;DHT22;65740;52.464;13.446;2023-05-10T09:10:18;19.50;41.70
76789;DHT22;65740;52.464;13.446;2023-05-10T09:12:45;19.50;41.80
76789;DHT22;65740;52.464;13.446;2023-05-10T09:15:11;19.60;41.80
76789;DHT22;65740;52.464;13.446;2023-05-10T09:17:38;19.60;42.10
76789;DHT22;65740;52.464;13.446;2023-05-10T09:20:06;19.60;41.80
76789;DHT22;65740;52.464;13.446;2023-05-10T09:22:32;19.60;42.00
76789;DHT22;65740;52.464;13.446;2023-05-10T09:27:30;19.60;42.10
76789;DHT22;65740;52.464;13.446;2023-05-10T09:29:56;19.60;42.40
76789;DHT22;65740;52.464;13.446;2023-05-10T09:32:39;19.70;42.40
76789;DHT22;65740;52.464;13.446;2023-05-10T09:35:12;19.70;42.30
76789;DHT22;65740;52.464;13.446;2023-05-10T09:37:43;19.80;42.30
76789;DHT22;65740;52.464;13.446;2023-05-10T09:40:17;19.80;42.40
76789;DHT22;65740;52.464;13.446;2023-05-10T09:42:55;19.90;42.30
76789;DHT22;65740;52.464;13.446;2023-05-10T09:45:24;19.90;42.40
76789;DHT22;65740;52.464;13.446;2023-05-10T09:47:50;19.90;42.40
76789;DHT22;65740;52.464;13.446;2023-05-10T09:50:16;19.90;42.40
76789;DHT22;65740;52.464;13.446;2023-05-10T09:55:14;20.00;42.50
76789;DHT22;65740;52.464;13.446;2023-05-10T09:57:40;20.00;42.60
76789;DHT22;65740;52.464;13.446;2023-05-10T10:00:06;20.00;42.70
76789;DHT22;65740;52.464;13.446;2023-05-10T10:02:33;20.10;42.70
76789;DHT22;65740;52.464;13.446;2023-05-10T10:05:01;20.10;42.60
76789;DHT22;65740;52.464;13.446;2023-05-10T10:07:27;20.10;42.70
76789;DHT22;65740;52.464;13.446;2023-05-10T10:09:53;20.20;42.80
76789;DHT22;65740;52.464;13.446;2023-05-10T10:12:19;20.20;43.10
76789;DHT22;65740;52.464;13.446;2023-05-10T10:14:48;20.20;43.00
76789;DHT22;65740;52.464;13.446;2023-05-10T10:17:16;20.20;43.50
76789;DHT22;65740;52.464;13.446;2023-05-10T10:19:42;20.20;44.00
76789;DHT22;65740;52.464;13.446;2023-05-10T10:22:07;20.20;43.20
76789;DHT22;65740;52.464;13.446;2023-05-10T10:24:33;20.20;43.20
76789;DHT22;65740;52.464;13.446;2023-05-10T10:27:08;20.30;43.30
76789;DHT22;65740;52.464;13.446;2023-05-10T10:35:15;20.40;43.10
76789;DHT22;65740;52.464;13.446;2023-05-10T10:37:44;20.40;43.10
76789;DHT22;65740;52.464;13.446;2023-05-10T10:40:27;20.40;44.30
76789;DHT22;65740;52.464;13.446;2023-05-10T10:42:54;20.50;44.70
76789;DHT22;65740;52.464;13.446;2023-05-10T10:45:21;20.50;43.70
76789;DHT22;65740;52.464;13.446;2023-05-10T10:47:47;20.60;43.80
76789;DHT22;65740;52.464;13.446;2023-05-10T10:50:13;20.60;44.00
76789;DHT22;65740;52.464;13.446;2023-05-10T10:52:39;20.60;44.00
76789;DHT22;65740;52.464;13.446;2023-05-10T10:55:08;20.70;44.30
76789;DHT22;65740;52.464;13.446;2023-05-10T11:02:50;20.70;47.50
76789;DHT22;65740;52.464;13.446;2023-05-10T11:05:41;20.80;47.40
76789;DHT22;65740;52.464;13.446;2023-05-10T11:13:33;20.90;46.30
76789;DHT22;65740;52.464;13.446;2023-05-10T11:16:19;20.90;47.00
76789;DHT22;65740;52.464;13.446;2023-05-10T11:19:07;20.90;47.40
76789;DHT22;65740;52.464;13.446;2023-05-10T11:21:34;20.90;48.60
76789;DHT22;65740;52.464;13.446;2023-05-10T11:24:13;21.00;49.00
76789;DHT22;65740;52.464;13.446;2023-05-10T11:26:40;21.00;47.50
76789;DHT22;65740;52.464;13.446;2023-05-10T11:29:06;21.00;47.50
76789;DHT22;65740;52.464;13.446;2023-05-10T11:31:32;21.00;46.00
76789;DHT22;65740;52.464;13.446;2023-05-10T11:33:59;21.00;45.10
76789;DHT22;65740;52.464;13.446;2023-05-10T11:36:29;21.10;45.50
76789;DHT22;65740;52.464;13.446;2023-05-10T11:38:55;21.10;45.70
76789;DHT22;65740;52.464;13.446;2023-05-10T11:41:23;21.10;46.00
76789;DHT22;65740;52.464;13.446;2023-05-10T11:43:55;21.20;46.10
76789;DHT22;65740;52.464;13.446;2023-05-10T11:46:26;21.20;46.40
76789;DHT22;65740;52.464;13.446;2023-05-10T11:49:02;21.30;46.50
76789;DHT22;65740;52.464;13.446;2023-05-10T11:51:34;21.30;46.20
76789;DHT22;65740;52.464;13.446;2023-05-10T11:54:01;21.30;46.10
76789;DHT22;65740;52.464;13.446;2023-05-10T11:56:32;21.30;45.80
76789;DHT22;65740;52.464;13.446;2023-05-10T11:58:58;21.40;45.50
76789;DHT22;65740;52.464;13.446;2023-05-10T12:01:27;21.40;46.10
76789;DHT22;65740;52.464;13.446;2023-05-10T12:03:54;21.40;45.90
76789;DHT22;65740;52.464;13.446;2023-05-10T12:06:20;21.50;45.80
76789;DHT22;65740;52.464;13.446;2023-05-10T12:08:47;21.50;45.70
76789;DHT22;65740;52.464;13.446;2023-05-10T12:11:18;21.50;44.90
76789;DHT22;65740;52.464;13.446;2023-05-10T12:13:44;21.60;45.00
76789;DHT22;65740;52.464;13.446;2023-05-10T12:16:25;21.60;45.70
76789;DHT22;65740;52.464;13.446;2023-05-10T12:18:53;21.60;45.30
76789;DHT22;65740;52.464;13.446;2023-05-10T12:21:22;21.70;44.90
76789;DHT22;65740;52.464;13.446;2023-05-10T12:23:52;21.70;45.00
76789;DHT22;65740;52.464;13.446;2023-05-10T12:26:22;21.70;44.90
76789;DHT22;65740;52.464;13.446;2023-05-10T12:28:47;21.80;44.80
76789;DHT22;65740;52.464;13.446;2023-05-10T12:31:13;21.80;45.10
76789;DHT22;65740;52.464;13.446;2023-05-10T12:33:41;21.80;45.30
76789;DHT22;65740;52.464;13.446;2023-05-10T12:36:09;21.90;45.00
76789;DHT22;65740;52.464;13.446;2023-05-10T12:38:37;21.90;44.70
76789;DHT22;65740;52.464;13.446;2023-05-10T12:41:08;21.90;45.80
76789;DHT22;65740;52.464;13.446;2023-05-10T12:43:34;21.90;46.00
76789;DHT22;65740;52.464;13.446;2023-05-10T12:46:11;21.90;46.00
76789;DHT22;65740;52.464;13.446;2023-05-10T12:48:39;22.00;45.50
76789;DHT22;65740;52.464;13.446;2023-05-10T12:51:05;22.00;45.70
76789;DHT22;65740;52.464;13.446;2023-05-10T12:53:35;22.10;46.20
76789;DHT22;65740;52.464;13.446;2023-05-10T12:56:01;22.10;46.50
76789;DHT22;65740;52.464;13.446;2023-05-10T12:58:27;22.10;46.10
76789;DHT22;65740;52.464;13.446;2023-05-10T13:00:52;22.20;47.20
76789;DHT22;65740;52.464;13.446;2023-05-10T13:03:19;22.20;46.80
76789;DHT22;65740;52.464;13.446;2023-05-10T13:05:45;22.20;46.40
76789;DHT22;65740;52.464;13.446;2023-05-10T13:08:11;22.20;46.30
76789;DHT22;65740;52.464;13.446;2023-05-10T13:10:36;22.30;47.70
76789;DHT22;65740;52.464;13.446;2023-05-10T13:13:02;22.30;47.40
76789;DHT22;65740;52.464;13.446;2023-05-10T13:15:28;22.30;47.70
76789;DHT22;65740;52.464;13.446;2023-05-10T13:17:54;22.30;46.30
76789;DHT22;65740;52.464;13.446;2023-05-10T13:20:20;22.30;46.80
76789;DHT22;65740;52.464;13.446;2023-05-10T13:22:46;22.30;47.80
76789;DHT22;65740;52.464;13.446;2023-05-10T13:25:12;22.30;45.80
76789;DHT22;65740;52.464;13.446;2023-05-10T13:27:39;22.40;46.40
76789;DHT22;65740;52.464;13.446;2023-05-10T13:30:05;22.40;46.70
76789;DHT22;65740;52.464;13.446;2023-05-10T13:32:31;22.40;46.00
76789;DHT22;65740;52.464;13.446;2023-05-10T13:34:57;22.40;47.50
76789;DHT22;65740;52.464;13.446;2023-05-10T13:37:23;22.40;47.50
76789;DHT22;65740;52.464;13.446;2023-05-10T13:39:49;22.40;45.60
76789;DHT22;65740;52.464;13.446;2023-05-10T13:42:15;22.50;47.10
76789;DHT22;65740;52.464;13.446;2023-05-10T13:44:41;22.50;47.70
76789;DHT22;65740;52.464;13.446;2023-05-10T13:47:07;22.50;46.80
76789;DHT22;65740;52.464;13.446;2023-05-10T13:49:32;22.60;48.90
76789;DHT22;65740;52.464;13.446;2023-05-10T13:52:00;22.60;46.80
76789;DHT22;65740;52.464;13.446;2023-05-10T13:54:34;22.60;46.70
76789;DHT22;65740;52.464;13.446;2023-05-10T13:57:01;22.70;47.20
76789;DHT22;65740;52.464;13.446;2023-05-10T13:59:26;22.70;47.70
76789;DHT22;65740;52.464;13.446;2023-05-10T14:01:52;22.70;47.70
76789;DHT22;65740;52.464;13.446;2023-05-10T14:04:17;22.80;48.70
76789;DHT22;65740;52.464;13.446;2023-05-10T14:06:43;22.80;48.00
76789;DHT22;65740;52.464;13.446;2023-05-10T14:09:09;22.80;47.10
76789;DHT22;65740;52.464;13.446;2023-05-10T14:11:34;22.80;47.90
76789;DHT22;65740;52.464;13.446;2023-05-10T14:14:00;22.80;47.30
76789;DHT22;65740;52.464;13.446;2023-05-10T14:16:26;22.90;46.70
76789;DHT22;65740;52.464;13.446;2023-05-10T14:18:52;22.80;46.90
76789;DHT22;65740;52.464;13.446;2023-05-10T14:21:18;22.90;47.30
76789;DHT22;65740;52.464;13.446;2023-05-10T14:23:44;22.90;46.50
76789;DHT22;65740;52.464;13.446;2023-05-10T14:26:09;22.90;45.30
76789;DHT22;65740;52.464;13.446;2023-05-10T14:28:35;22.90;46.80
76789;DHT22;65740;52.464;13.446;2023-05-10T14:31:01;22.90;47.20
76789;DHT22;65740;52.464;13.446;2023-05-10T14:33:27;22.90;46.90
76789;DHT22;65740;52.464;13.446;2023-05-10T14:35:53;22.90;47.00
76789;DHT22;65740;52.464;13.446;2023-05-10T14:38:20;22.90;46.60
76789;DHT22;65740;52.464;13.446;2023-05-10T14:40:45;23.00;47.00
76789;DHT22;65740;52.464;13.446;2023-05-10T14:43:11;23.00;47.10
76789;DHT22;65740;52.464;13.446;2023-05-10T14:45:37;23.00;47.40
76789;DHT22;65740;52.464;13.446;2023-05-10T14:48:03;23.00;48.10
76789;DHT22;65740;52.464;13.446;2023-05-10T14:50:30;23.00;46.90
76789;DHT22;65740;52.464;13.446;2023-05-10T14:52:56;23.00;47.50
76789;DHT22;65740;52.464;13.446;2023-05-10T14:55:22;23.00;46.60
76789;DHT22;65740;52.464;13.446;2023-05-10T14:57:47;23.10;46.00
76789;DHT22;65740;52.464;13.446;2023-05-10T15:00:15;23.10;46.20
76789;DHT22;65740;52.464;13.446;2023-05-10T15:02:41;23.10;47.30
76789;DHT22;65740;52.464;13.446;2023-05-10T15:05:07;23.10;46.40
76789;DHT22;65740;52.464;13.446;2023-05-10T15:07:32;23.10;46.80
76789;DHT22;65740;52.464;13.446;2023-05-10T15:09:58;23.10;47.10
76789;DHT22;65740;52.464;13.446;2023-05-10T15:12:24;23.10;47.40
76789;DHT22;65740;52.464;13.446;2023-05-10T15:14:49;23.10;47.30
76789;DHT22;65740;52.464;13.446;2023-05-10T15:17:15;23.10;45.90
76789;DHT22;65740;52.464;13.446;2023-05-10T15:19:41;23.10;47.40
76789;DHT22;65740;52.464;13.446;2023-05-10T15:22:07;23.10;47.90
76789;DHT22;65740;52.464;13.446;2023-05-10T15:24:33;23.10;46.70
76789;DHT22;65740;52.464;13.446;2023-05-10T15:26:59;23.10;46.40
76789;DHT22;65740;52.464;13.446;2023-05-10T15:29:25;23.10;46.60
76789;DHT22;65740;52.464;13.446;2023-05-10T15:31:51;23.20;47.30
76789;DHT22;65740;52.464;13.446;2023-05-10T15:34:17;23.10;46.60
76789;DHT22;65740;52.464;13.446;2023-05-10T15:36:44;23.20;46.70
76789;DHT22;65740;52.464;13.446;2023-05-10T15:39:10;23.20;49.40
76789;DHT22;65740;52.464;13.446;2023-05-10T15:41:36;23.20;48.50
76789;DHT22;65740;52.464;13.446;2023-05-10T15:44:01;23.20;49.40
76789;DHT22;65740;52.464;13.446;2023-05-10T15:46:28;23.20;47.40
76789;DHT22;65740;52.464;13.446;2023-05-10T15:48:53;23.20;47.20
76789;DHT22;65740;52.464;13.446;2023-05-10T15:51:19;23.20;48.70